createdAt,value
2023-05-17T00:00:40.141Z,1.50
2023-05-17T00:03:10.536Z,1.43
2023-05-17T00:05:40.185Z,1.50
2023-05-17T00:08:13.119Z,1.50
2023-05-17T00:10:41.470Z,1.50
2023-05-17T00:13:09.846Z,1.23
2023-05-17T00:15:38.207Z,1.40
2023-05-17T00:18:06.787Z,1.20
2023-05-17T00:20:36.893Z,1.40
2023-05-17T00:23:05.362Z,1.23
2023-05-17T00:25:33.738Z,1.50
2023-05-17T00:28:02.053Z,1.40
2023-05-17T00:30:30.568Z,1.33
2023-05-17T00:32:59.026Z,1.40
2023-05-17T00:35:27.930Z,1.30
2023-05-17T00:37:58.197Z,1.40
2023-05-17T00:40:26.883Z,1.60
2023-05-17T00:42:55.163Z,1.60
2023-05-17T00:45:23.590Z,1.50
2023-05-17T00:47:52.015Z,1.70
2023-05-17T00:50:20.642Z,1.40
2023-05-17T00:52:49.180Z,1.73
2023-05-17T00:55:19.861Z,1.20
2023-05-17T00:57:48.336Z,1.40
2023-05-17T01:00:17.130Z,1.30
2023-05-17T01:02:48.746Z,1.53
2023-05-17T01:05:17.291Z,1.40
2023-05-17T01:07:45.659Z,1.30
2023-05-17T01:10:14.803Z,1.30
2023-05-17T01:12:58.760Z,0.93
2023-05-17T01:15:30.932Z,1.07
2023-05-17T01:18:11.748Z,1.57
2023-05-17T01:20:45.487Z,1.20
2023-05-17T01:23:32.720Z,1.33
2023-05-17T01:26:09.791Z,1.20
2023-05-17T01:28:40.889Z,1.10
2023-05-17T01:31:10.486Z,1.20
2023-05-17T01:33:39.745Z,1.03
2023-05-17T01:36:09.676Z,1.00
2023-05-17T01:38:38.047Z,1.20
2023-05-17T01:41:14.031Z,1.07
2023-05-17T01:43:49.454Z,1.20
2023-05-17T01:46:27.819Z,1.03
2023-05-17T01:49:10.617Z,0.90
2023-05-17T01:51:50.783Z,1.10
2023-05-17T01:54:24.752Z,1.00
2023-05-17T01:56:59.489Z,1.00
2023-05-17T01:59:31.600Z,1.10
2023-05-17T02:02:06.354Z,1.10
2023-05-17T02:04:34.877Z,1.00
2023-05-17T02:07:03.501Z,1.17
2023-05-17T02:09:32.112Z,1.10
2023-05-17T02:12:00.652Z,1.07
2023-05-17T02:14:30.461Z,1.03
2023-05-17T02:16:59.352Z,1.00
2023-05-17T02:19:27.769Z,1.00
2023-05-17T02:21:56.290Z,1.10
2023-05-17T02:24:24.644Z,1.03
2023-05-17T02:26:52.976Z,0.93
2023-05-17T02:29:22.072Z,0.90
2023-05-17T02:31:52.329Z,1.10
2023-05-17T02:34:20.800Z,1.20
2023-05-17T02:36:49.304Z,1.20
2023-05-17T02:39:17.968Z,1.27
2023-05-17T02:41:46.711Z,1.20
2023-05-17T02:44:15.573Z,1.00
2023-05-17T02:46:44.023Z,0.90
2023-05-17T02:49:14.425Z,0.87
2023-05-17T02:51:42.859Z,1.23
2023-05-17T02:54:11.398Z,1.10
2023-05-17T02:56:39.791Z,1.20
2023-05-17T02:59:08.310Z,1.20
2023-05-17T03:01:36.794Z,1.10
2023-05-17T03:04:07.792Z,0.93
2023-05-17T03:06:38.920Z,0.93
2023-05-17T03:09:08.119Z,0.93
2023-05-17T03:11:36.843Z,1.13
2023-05-17T03:14:05.372Z,1.00
2023-05-17T03:16:33.772Z,1.10
2023-05-17T03:19:02.347Z,1.10
2023-05-17T03:21:31.730Z,0.90
2023-05-17T03:24:01.672Z,1.07
2023-05-17T03:26:30.845Z,0.80
2023-05-17T03:28:59.295Z,1.00
2023-05-17T03:31:27.822Z,0.83
2023-05-17T03:33:56.269Z,0.93
2023-05-17T03:36:25.976Z,0.80
2023-05-17T03:38:54.272Z,1.00
2023-05-17T03:41:24.459Z,0.80
2023-05-17T03:43:52.938Z,0.80
2023-05-17T03:46:21.330Z,0.70
2023-05-17T03:48:49.869Z,0.80
2023-05-17T03:51:18.827Z,0.80
2023-05-17T03:53:47.212Z,0.90
2023-05-17T03:56:15.981Z,1.07
2023-05-17T03:58:45.946Z,1.20
2023-05-17T04:01:14.465Z,0.80
2023-05-17T04:03:43.154Z,1.10
2023-05-17T04:06:11.966Z,0.90
2023-05-17T04:08:40.406Z,1.07
2023-05-17T04:14:57.211Z,0.90
2023-05-17T04:18:20.096Z,0.67
2023-05-17T04:28:06.190Z,0.90
2023-05-17T04:30:54.028Z,0.80
2023-05-17T04:36:46.901Z,0.80
2023-05-17T04:39:45.624Z,0.83
2023-05-17T04:45:38.356Z,0.93
2023-05-17T04:52:11.850Z,0.90
2023-05-17T04:54:45.068Z,0.80
2023-05-17T04:57:16.050Z,0.87
2023-05-17T04:59:44.588Z,0.80
2023-05-17T05:02:14.896Z,0.97
2023-05-17T05:04:45.486Z,0.83
2023-05-17T05:07:17.295Z,0.80
2023-05-17T05:09:46.081Z,1.03
2023-05-17T05:12:16.411Z,0.80
2023-05-17T05:14:47.086Z,0.90
2023-05-17T05:17:16.054Z,0.70
2023-05-17T05:19:46.968Z,0.97
2023-05-17T05:22:15.826Z,1.00
2023-05-17T05:24:44.682Z,0.80
2023-05-17T05:27:13.577Z,1.00
2023-05-17T05:29:42.939Z,0.80
2023-05-17T05:32:11.573Z,0.70
2023-05-17T05:34:40.633Z,0.93
2023-05-17T05:37:11.040Z,0.73
2023-05-17T05:39:39.573Z,0.73
2023-05-17T05:42:08.886Z,0.90
2023-05-17T05:44:37.497Z,0.73
2023-05-17T05:47:06.522Z,0.80
2023-05-17T05:49:35.002Z,0.60
2023-05-17T05:52:03.694Z,0.50
2023-05-17T05:54:33.952Z,0.80
2023-05-17T05:57:02.703Z,0.50
2023-05-17T05:59:31.412Z,0.60
2023-05-17T06:01:59.980Z,0.80
2023-05-17T06:04:40.775Z,0.60
2023-05-17T06:07:13.756Z,0.80
2023-05-17T06:09:44.138Z,0.50
2023-05-17T06:12:12.587Z,0.67
2023-05-17T06:14:41.488Z,0.80
2023-05-17T06:17:10.522Z,0.80
2023-05-17T06:19:40.390Z,0.70
2023-05-17T06:22:13.331Z,0.73
2023-05-17T06:24:53.935Z,0.70
2023-05-17T06:27:22.746Z,0.67
2023-05-17T06:29:53.186Z,0.50
2023-05-17T06:32:25.819Z,0.60
2023-05-17T06:34:55.092Z,0.60
2023-05-17T06:37:24.039Z,0.67
2023-05-17T06:40:00.093Z,0.70
2023-05-17T06:42:38.985Z,0.60
2023-05-17T06:45:09.423Z,0.60
2023-05-17T06:47:38.287Z,0.63
2023-05-17T06:50:08.715Z,0.70
2023-05-17T06:52:37.447Z,0.80
2023-05-17T06:55:09.346Z,0.70
2023-05-17T06:57:39.109Z,0.80
2023-05-17T07:00:11.292Z,0.70
2023-05-17T07:02:40.126Z,0.80
2023-05-17T07:05:10.333Z,0.70
2023-05-17T07:07:39.042Z,0.60
2023-05-17T07:10:09.633Z,0.63
2023-05-17T07:12:39.127Z,0.70
2023-05-17T07:15:09.396Z,0.60
2023-05-17T07:17:39.238Z,0.60
2023-05-17T07:20:09.423Z,0.77
2023-05-17T07:22:39.409Z,0.70
2023-05-17T07:25:11.668Z,0.53
2023-05-17T07:27:40.203Z,0.50
2023-05-17T07:30:10.899Z,0.57
2023-05-17T07:32:39.864Z,0.70
2023-05-17T07:35:09.023Z,0.73
2023-05-17T07:37:37.744Z,0.80
2023-05-17T07:40:14.710Z,0.57
2023-05-17T07:42:43.623Z,1.00
2023-05-17T07:45:12.812Z,1.00
2023-05-17T07:47:41.398Z,0.80
2023-05-17T07:50:11.028Z,0.50
2023-05-17T07:52:39.523Z,1.07
2023-05-17T07:55:11.868Z,0.70
2023-05-17T07:57:44.375Z,1.13
2023-05-17T08:00:14.511Z,1.10
2023-05-17T08:02:43.560Z,1.00
2023-05-17T08:05:12.248Z,0.90
2023-05-17T08:07:41.641Z,1.20
2023-05-17T08:10:12.568Z,1.10
2023-05-17T08:12:41.006Z,1.00
2023-05-17T08:15:15.263Z,1.00
2023-05-17T08:17:43.688Z,1.10
2023-05-17T08:20:13.521Z,1.10
2023-05-17T08:22:41.933Z,0.93
2023-05-17T08:25:12.262Z,1.00
2023-05-17T08:27:41.520Z,1.10
2023-05-17T08:30:14.854Z,1.23
2023-05-17T08:32:45.154Z,1.10
2023-05-17T08:35:14.612Z,1.00
2023-05-17T08:37:43.785Z,0.70
2023-05-17T08:40:20.541Z,0.90
2023-05-17T08:42:49.860Z,1.00
2023-05-17T08:45:19.550Z,0.90
2023-05-17T08:47:49.703Z,0.90
2023-05-17T08:50:18.353Z,1.10
2023-05-17T08:52:47.746Z,1.13
2023-05-17T08:55:18.331Z,1.30
2023-05-17T08:57:48.585Z,0.83
2023-05-17T09:00:21.377Z,0.80
2023-05-17T09:02:50.300Z,0.90
2023-05-17T09:05:19.365Z,0.90
2023-05-17T09:07:50.926Z,1.03
2023-05-17T09:10:21.138Z,1.00
2023-05-17T09:12:50.870Z,0.97
2023-05-17T09:15:23.422Z,1.00
2023-05-17T09:17:56.254Z,0.97
2023-05-17T09:20:26.140Z,0.90
2023-05-17T09:22:54.551Z,0.90
2023-05-17T09:25:26.095Z,0.80
2023-05-17T09:27:54.550Z,0.63
2023-05-17T09:30:29.789Z,1.00
2023-05-17T09:32:59.519Z,1.00
2023-05-17T09:35:32.241Z,0.80
2023-05-17T09:38:09.673Z,0.80
2023-05-17T09:40:47.871Z,1.00
2023-05-17T09:43:18.265Z,1.00
2023-05-17T09:45:46.780Z,0.80
2023-05-17T09:48:17.550Z,0.90
2023-05-17T09:50:47.893Z,0.90
2023-05-17T09:53:29.432Z,0.77
2023-05-17T09:56:00.840Z,1.10
2023-05-17T09:58:30.061Z,1.20
2023-05-17T10:01:03.936Z,1.10
2023-05-17T10:03:34.342Z,0.73
2023-05-17T10:06:07.516Z,1.17
2023-05-17T10:08:36.858Z,0.77
2023-05-17T10:11:10.062Z,1.10
2023-05-17T10:13:44.165Z,0.90
2023-05-17T10:16:13.612Z,0.70
2023-05-17T10:18:42.757Z,0.60
2023-05-17T10:21:11.888Z,0.70
2023-05-17T10:23:44.309Z,1.00
2023-05-17T10:26:19.091Z,0.77
2023-05-17T10:28:51.081Z,1.00
2023-05-17T10:31:20.215Z,0.63
2023-05-17T10:33:52.683Z,0.93
2023-05-17T10:36:21.981Z,1.00
2023-05-17T10:38:50.462Z,0.80
2023-05-17T10:41:23.958Z,0.90
2023-05-17T10:43:54.985Z,0.93
2023-05-17T10:46:26.557Z,1.10
2023-05-17T10:48:56.032Z,0.80
2023-05-17T10:51:26.071Z,1.00
2023-05-17T10:54:11.627Z,1.10
2023-05-17T10:56:50.591Z,1.20
2023-05-17T10:59:25.403Z,1.00
2023-05-17T11:02:01.633Z,0.80
2023-05-17T11:04:36.404Z,0.87
2023-05-17T11:07:26.564Z,1.20
2023-05-17T11:09:57.730Z,0.70
2023-05-17T11:12:40.551Z,0.90
2023-05-17T11:18:29.554Z,0.70
2023-05-17T11:21:09.878Z,0.70
2023-05-17T11:23:38.562Z,1.00
2023-05-17T11:26:22.302Z,0.93
2023-05-17T11:29:04.996Z,0.70
2023-05-17T11:31:37.578Z,0.70
2023-05-17T11:34:07.305Z,0.97
2023-05-17T11:36:54.082Z,0.90
2023-05-17T11:39:24.392Z,0.80
2023-05-17T11:41:55.618Z,1.10
2023-05-17T11:44:30.951Z,0.73
2023-05-17T11:47:06.747Z,1.30
2023-05-17T11:49:38.979Z,0.80
2023-05-17T11:52:08.742Z,0.77
2023-05-17T11:54:39.573Z,1.10
2023-05-17T11:57:08.576Z,0.70
2023-05-17T11:59:43.094Z,0.80
2023-05-17T12:02:12.121Z,0.90
2023-05-17T12:04:41.010Z,0.70
2023-05-17T12:07:11.134Z,0.80
2023-05-17T12:09:40.927Z,0.70
2023-05-17T12:12:09.815Z,0.63
2023-05-17T12:14:39.076Z,0.60
2023-05-17T12:17:10.588Z,0.97
2023-05-17T12:19:39.225Z,0.80
2023-05-17T12:22:09.452Z,0.80
2023-05-17T12:24:43.110Z,0.90
2023-05-17T12:27:13.350Z,0.67
2023-05-17T12:29:42.089Z,0.77
2023-05-17T12:32:12.405Z,0.70
2023-05-17T12:34:42.564Z,0.90
2023-05-17T12:37:13.214Z,0.67
2023-05-17T12:39:42.260Z,0.80
2023-05-17T12:42:11.660Z,0.70
2023-05-17T12:44:41.593Z,0.60
2023-05-17T12:47:13.129Z,0.70
2023-05-17T12:49:41.653Z,0.87
2023-05-17T12:52:14.425Z,0.60
2023-05-17T12:54:44.003Z,0.93
2023-05-17T12:57:14.402Z,0.80
2023-05-17T12:59:51.834Z,0.63
2023-05-17T13:02:23.928Z,0.70
2023-05-17T13:04:54.388Z,0.90
2023-05-17T13:07:24.867Z,0.70
2023-05-17T13:09:53.696Z,0.97
2023-05-17T13:12:25.330Z,0.93
2023-05-17T13:14:55.519Z,0.90
2023-05-17T13:17:37.026Z,0.90
2023-05-17T13:20:09.559Z,0.80
2023-05-17T13:22:42.992Z,0.73
2023-05-17T13:25:14.319Z,0.83
2023-05-17T13:27:48.950Z,1.00
2023-05-17T13:30:18.203Z,0.70
2023-05-17T13:32:53.751Z,0.50
2023-05-17T13:35:22.593Z,0.80
2023-05-17T13:37:51.484Z,0.80
2023-05-17T13:40:19.970Z,0.70
2023-05-17T13:42:48.730Z,0.70
2023-05-17T13:45:19.309Z,0.97
2023-05-17T13:47:49.422Z,1.00
2023-05-17T13:50:18.884Z,0.70
2023-05-17T13:52:49.258Z,0.70
2023-05-17T13:55:18.095Z,0.90
2023-05-17T13:57:47.304Z,0.83
2023-05-17T14:00:17.542Z,0.90
2023-05-17T14:02:46.170Z,0.80
2023-05-17T14:05:16.533Z,0.73
2023-05-17T14:07:46.097Z,0.80
2023-05-17T14:10:15.374Z,0.67
2023-05-17T14:12:43.865Z,0.77
2023-05-17T14:15:13.833Z,1.00
2023-05-17T14:17:42.537Z,1.00
2023-05-17T14:20:13.064Z,0.83
2023-05-17T14:22:43.809Z,1.00
2023-05-17T14:25:13.823Z,0.80
2023-05-17T14:27:43.174Z,0.80
2023-05-17T14:30:13.970Z,0.90
2023-05-17T14:32:42.555Z,0.90
2023-05-17T14:35:11.837Z,0.97
2023-05-17T14:37:43.281Z,0.60
2023-05-17T14:40:14.538Z,0.80
2023-05-17T14:42:43.320Z,0.73
2023-05-17T14:45:12.573Z,1.10
2023-05-17T14:47:42.758Z,1.07
2023-05-17T14:50:13.446Z,0.90
2023-05-17T14:52:46.164Z,0.80
2023-05-17T14:55:16.530Z,0.60
2023-05-17T14:57:56.386Z,0.80
2023-05-17T15:00:27.126Z,0.80
2023-05-17T15:02:57.679Z,0.90
2023-05-17T15:05:28.540Z,0.70
2023-05-17T15:07:59.625Z,0.70
2023-05-17T15:10:29.300Z,0.80
2023-05-17T15:12:57.869Z,0.73
2023-05-17T15:15:26.899Z,0.70
2023-05-17T15:17:56.807Z,0.70
2023-05-17T15:20:25.870Z,0.70
2023-05-17T15:22:55.104Z,0.60
2023-05-17T15:25:25.204Z,0.70
2023-05-17T15:27:53.613Z,0.73
2023-05-17T15:30:27.023Z,0.80
2023-05-17T15:32:55.418Z,0.60
2023-05-17T15:35:23.910Z,0.60
2023-05-17T15:37:53.660Z,0.80
2023-05-17T15:40:25.017Z,0.70
2023-05-17T15:42:55.244Z,0.60
2023-05-17T15:45:24.762Z,0.70
2023-05-17T15:47:53.878Z,0.70
2023-05-17T15:50:25.142Z,0.70
2023-05-17T15:52:54.700Z,0.50
2023-05-17T15:55:23.875Z,0.80
2023-05-17T15:57:52.374Z,0.70
2023-05-17T16:00:40.782Z,0.50
2023-05-17T16:03:09.454Z,0.60
2023-05-17T16:05:37.867Z,0.80
2023-05-17T16:08:07.273Z,0.80
2023-05-17T16:10:37.078Z,0.87
2023-05-17T16:13:06.620Z,1.00
2023-05-17T16:15:37.404Z,0.83
2023-05-17T16:18:06.408Z,1.10
2023-05-17T16:20:34.880Z,0.77
2023-05-17T16:23:03.401Z,1.17
2023-05-17T16:25:32.724Z,0.80
2023-05-17T16:28:01.479Z,0.60
2023-05-17T16:30:30.328Z,0.90
2023-05-17T16:33:00.155Z,0.70
2023-05-17T16:35:29.236Z,0.80
2023-05-17T16:37:57.703Z,0.73
2023-05-17T16:40:28.806Z,0.70
2023-05-17T16:42:57.204Z,0.60
2023-05-17T16:45:25.550Z,0.80
2023-05-17T16:47:54.073Z,0.70
2023-05-17T16:50:23.874Z,0.50
2023-05-17T16:52:52.399Z,0.50
2023-05-17T16:55:21.485Z,0.70
2023-05-17T16:57:49.956Z,0.83
2023-05-17T17:00:20.584Z,0.70
2023-05-17T17:02:49.059Z,0.90
2023-05-17T17:05:17.733Z,0.90
2023-05-17T17:07:47.506Z,0.80
2023-05-17T17:10:15.854Z,0.60
2023-05-17T17:12:44.194Z,0.77
2023-05-17T17:15:12.904Z,0.60
2023-05-17T17:17:42.018Z,0.83
2023-05-17T17:20:12.231Z,0.80
2023-05-17T17:22:41.455Z,0.60
2023-05-17T17:25:12.884Z,0.80
2023-05-17T17:27:42.490Z,0.63
2023-05-17T17:30:12.408Z,0.77
2023-05-17T17:32:41.713Z,0.70
2023-05-17T17:35:11.675Z,0.70
2023-05-17T17:37:40.762Z,0.40
2023-05-17T17:40:12.669Z,0.60
2023-05-17T17:42:40.952Z,0.60
2023-05-17T17:45:11.738Z,0.67
2023-05-17T17:47:40.110Z,0.63
2023-05-17T17:50:10.286Z,0.50
2023-05-17T17:52:39.110Z,0.60
2023-05-17T17:55:13.115Z,0.70
2023-05-17T17:57:41.883Z,0.57
2023-05-17T18:00:13.850Z,0.70
2023-05-17T18:02:43.010Z,0.40
2023-05-17T18:05:12.540Z,0.70
2023-05-17T18:07:41.030Z,0.50
2023-05-17T18:10:13.276Z,0.60
2023-05-17T18:12:42.004Z,0.50
2023-05-17T18:15:12.296Z,0.70
2023-05-17T18:17:41.149Z,0.50
2023-05-17T18:20:11.528Z,0.50
2023-05-17T18:22:40.216Z,0.50
2023-05-17T18:25:10.890Z,0.60
2023-05-17T18:27:41.655Z,0.50
